sensor_id;sensor_type;location;lat;lon;timestamp;pressure;altitude;pressure_sealevel;temperature;humidity
53932;BME280;39844;52.496;13.482;2022-09-30T00:01:40;100644.97;;;7.23;97.68
53932;BME280;39844;52.496;13.482;2022-09-30T00:04:09;100644.09;;;7.19;97.85
53932;BME280;39844;52.496;13.482;2022-09-30T00:06:37;100644.91;;;7.15;97.72
53932;BME280;39844;52.496;13.482;2022-09-30T00:09:02;100648.34;;;7.11;97.90
53932;BME280;39844;52.496;13.482;2022-09-30T00:11:31;100642.19;;;7.05;97.75
53932;BME280;39844;52.496;13.482;2022-09-30T00:13:58;100644.75;;;7.00;97.66
53932;BME280;39844;52.496;13.482;2022-09-30T00:16:25;100643.88;;;6.98;98.20
53932;BME280;39844;52.496;13.482;2022-09-30T00:18:53;100648.22;;;6.96;98.14
53932;BME280;39844;52.496;13.482;2022-09-30T00:21:19;100656.94;;;6.96;98.91
53932;BME280;39844;52.496;13.482;2022-09-30T00:23:44;100657.78;;;6.97;98.88
53932;BME280;39844;52.496;13.482;2022-09-30T00:26:13;100652.56;;;6.97;98.53
53932;BME280;39844;52.496;13.482;2022-09-30T00:28:40;100666.47;;;6.96;98.31
53932;BME280;39844;52.496;13.482;2022-09-30T00:31:08;100669.06;;;6.93;98.23
53932;BME280;39844;52.496;13.482;2022-09-30T00:33:35;100661.22;;;6.91;98.68
53932;BME280;39844;52.496;13.482;2022-09-30T00:36:01;100658.56;;;6.87;98.06
53932;BME280;39844;52.496;13.482;2022-09-30T00:38:27;100660.28;;;6.85;98.67
53932;BME280;39844;52.496;13.482;2022-09-30T00:40:53;100662.00;;;6.84;98.65
53932;BME280;39844;52.496;13.482;2022-09-30T00:43:44;100656.78;;;6.83;98.61
53932;BME280;39844;52.496;13.482;2022-09-30T00:46:36;100663.72;;;6.84;98.77
53932;BME280;39844;52.496;13.482;2022-09-30T00:49:15;100659.34;;;6.80;98.37
53932;BME280;39844;52.496;13.482;2022-09-30T00:51:48;100654.13;;;6.80;98.86
53932;BME280;39844;52.496;13.482;2022-09-30T00:54:19;100661.09;;;6.79;98.43
53932;BME280;39844;52.496;13.482;2022-09-30T00:56:51;100657.59;;;6.79;98.52
53932;BME280;39844;52.496;13.482;2022-09-30T00:59:33;100661.94;;;6.77;98.46
53932;BME280;39844;52.496;13.482;2022-09-30T01:01:59;100656.66;;;6.74;98.36
53932;BME280;39844;52.496;13.482;2022-09-30T01:04:28;100665.38;;;6.74;98.69
53932;BME280;39844;52.496;13.482;2022-09-30T01:06:58;100665.38;;;6.73;98.47
53932;BME280;39844;52.496;13.482;2022-09-30T01:09:24;100665.34;;;6.70;98.34
53932;BME280;39844;52.496;13.482;2022-09-30T01:11:49;100672.22;;;6.65;98.11
53932;BME280;39844;52.496;13.482;2022-09-30T01:14:17;100678.28;;;6.61;98.31
53932;BME280;39844;52.496;13.482;2022-09-30T01:17:06;100679.97;;;6.59;98.25
53932;BME280;39844;52.496;13.482;2022-09-30T01:33:38;100687.75;;;6.53;98.16
53932;BME280;39844;52.496;13.482;2022-09-30T01:36:23;100680.78;;;6.50;98.37
53932;BME280;39844;52.496;13.482;2022-09-30T01:39:23;100682.50;;;6.50;98.72
53932;BME280;39844;52.496;13.482;2022-09-30T01:47:28;100677.19;;;6.44;98.81
53932;BME280;39844;52.496;13.482;2022-09-30T01:50:20;100672.88;;;6.44;99.00
53932;BME280;39844;52.496;13.482;2022-09-30T01:52:59;100680.69;;;6.43;98.66
53932;BME280;39844;52.496;13.482;2022-09-30T01:55:42;100680.59;;;6.36;98.58
53932;BME280;39844;52.496;13.482;2022-09-30T01:58:23;100686.69;;;6.35;98.91
53932;BME280;39844;52.496;13.482;2022-09-30T02:00:56;100679.69;;;6.33;98.97
53932;BME280;39844;52.496;13.482;2022-09-30T02:03:28;100675.28;;;6.30;98.76
53932;BME280;39844;52.496;13.482;2022-09-30T02:08:59;100679.63;;;6.28;99.20
53932;BME280;39844;52.496;13.482;2022-09-30T02:11:29;100671.81;;;6.28;99.27
53932;BME280;39844;52.496;13.482;2022-09-30T02:16:34;100682.22;;;6.28;99.42
53932;BME280;39844;52.496;13.482;2022-09-30T02:19:16;100678.78;;;6.29;99.40
53932;BME280;39844;52.496;13.482;2022-09-30T02:21:47;100680.50;;;6.27;99.00
53932;BME280;39844;52.496;13.482;2022-09-30T02:24:18;100683.09;;;6.29;99.34
53932;BME280;39844;52.496;13.482;2022-09-30T02:26:46;100684.84;;;6.28;99.27
53932;BME280;39844;52.496;13.482;2022-09-30T02:29:20;100693.53;;;6.27;99.05
53932;BME280;39844;52.496;13.482;2022-09-30T02:31:50;100689.16;;;6.26;99.36
53932;BME280;39844;52.496;13.482;2022-09-30T02:34:24;100690.00;;;6.25;98.97
53932;BME280;39844;52.496;13.482;2022-09-30T02:37:33;100685.66;;;6.24;99.27
53932;BME280;39844;52.496;13.482;2022-09-30T02:42:42;100696.03;;;6.21;98.73
53932;BME280;39844;52.496;13.482;2022-09-30T02:45:11;100699.47;;;6.19;99.04
53932;BME280;39844;52.496;13.482;2022-09-30T02:50:19;100698.59;;;6.18;99.07
53932;BME280;39844;52.496;13.482;2022-09-30T02:58:11;100711.53;;;6.09;99.27
53932;BME280;39844;52.496;13.482;2022-09-30T03:00:37;100713.25;;;6.10;99.55
53932;BME280;39844;52.496;13.482;2022-09-30T03:03:07;100718.50;;;6.12;99.77
53932;BME280;39844;52.496;13.482;2022-09-30T03:05:35;100717.63;;;6.10;99.33
53932;BME280;39844;52.496;13.482;2022-09-30T03:08:00;100721.06;;;6.09;99.47
53932;BME280;39844;52.496;13.482;2022-09-30T03:10:28;100722.78;;;6.08;99.47
53932;BME280;39844;52.496;13.482;2022-09-30T03:16:02;100713.19;;;6.04;99.39
53932;BME280;39844;52.496;13.482;2022-09-30T03:23:57;100720.06;;;5.99;99.60
53932;BME280;39844;52.496;13.482;2022-09-30T03:29:08;100717.41;;;5.98;99.41
53932;BME280;39844;52.496;13.482;2022-09-30T03:37:52;100728.78;;;6.01;99.46
53932;BME280;39844;52.496;13.482;2022-09-30T03:43:05;100739.19;;;6.01;98.83
53932;BME280;39844;52.496;13.482;2022-09-30T03:45:44;100743.56;;;6.02;98.84
53932;BME280;39844;52.496;13.482;2022-09-30T03:48:12;100740.09;;;6.03;98.78
53932;BME280;39844;52.496;13.482;2022-09-30T03:50:40;100740.13;;;6.05;98.87
53932;BME280;39844;52.496;13.482;2022-09-30T03:53:10;100740.97;;;6.04;98.52
53932;BME280;39844;52.496;13.482;2022-09-30T03:55:44;100745.28;;;6.03;98.38
53932;BME280;39844;52.496;13.482;2022-09-30T03:58:12;100741.78;;;6.00;98.09
53932;BME280;39844;52.496;13.482;2022-09-30T04:00:39;100746.94;;;5.98;98.01
53932;BME280;39844;52.496;13.482;2022-09-30T04:03:10;100736.47;;;5.94;98.39
53932;BME280;39844;52.496;13.482;2022-09-30T04:05:35;100741.66;;;5.92;98.49
53932;BME280;39844;52.496;13.482;2022-09-30T04:08:00;100743.41;;;5.92;98.60
53932;BME280;39844;52.496;13.482;2022-09-30T04:10:26;100747.72;;;5.91;98.36
53932;BME280;39844;52.496;13.482;2022-09-30T04:12:52;100748.56;;;5.89;98.50
53932;BME280;39844;52.496;13.482;2022-09-30T04:15:18;100754.59;;;5.85;98.39
53932;BME280;39844;52.496;13.482;2022-09-30T04:17:43;100762.41;;;5.85;98.96
53932;BME280;39844;52.496;13.482;2022-09-30T04:20:09;100761.56;;;5.87;99.36
53932;BME280;39844;52.496;13.482;2022-09-30T04:22:34;100775.47;;;5.89;99.11
53932;BME280;39844;52.496;13.482;2022-09-30T04:24:59;100771.97;;;5.87;99.32
53932;BME280;39844;52.496;13.482;2022-09-30T04:27:25;100771.97;;;5.87;98.89
53932;BME280;39844;52.496;13.482;2022-09-30T04:29:51;100775.44;;;5.86;99.24
53932;BME280;39844;52.496;13.482;2022-09-30T04:32:16;100784.97;;;5.86;99.35
53932;BME280;39844;52.496;13.482;2022-09-30T04:34:41;100774.59;;;5.87;99.43
53932;BME280;39844;52.496;13.482;2022-09-30T04:37:06;100778.03;;;5.88;99.50
53932;BME280;39844;52.496;13.482;2022-09-30T04:39:32;100778.88;;;5.85;99.01
53932;BME280;39844;52.496;13.482;2022-09-30T04:41:57;100784.09;;;5.85;99.43
53932;BME280;39844;52.496;13.482;2022-09-30T04:44:23;100789.28;;;5.85;99.41
53932;BME280;39844;52.496;13.482;2022-09-30T04:46:48;100787.63;;;5.87;99.48
53932;BME280;39844;52.496;13.482;2022-09-30T04:49:14;100791.94;;;5.87;99.30
53932;BME280;39844;52.496;13.482;2022-09-30T04:51:39;100798.88;;;5.88;99.24
53932;BME280;39844;52.496;13.482;2022-09-30T04:54:08;100797.16;;;5.88;99.74
53932;BME280;39844;52.496;13.482;2022-09-30T04:56:33;100805.88;;;5.90;99.87
53932;BME280;39844;52.496;13.482;2022-09-30T04:58:58;100800.66;;;5.89;99.31
53932;BME280;39844;52.496;13.482;2022-09-30T05:01:23;100806.75;;;5.89;99.27
53932;BME280;39844;52.496;13.482;2022-09-30T05:03:49;100809.31;;;5.88;99.06
53932;BME280;39844;52.496;13.482;2022-09-30T05:06:15;100813.56;;;5.84;98.85
53932;BME280;39844;52.496;13.482;2022-09-30T05:08:40;100822.22;;;5.83;98.56
53932;BME280;39844;52.496;13.482;2022-09-30T05:11:13;100816.97;;;5.80;98.70
53932;BME280;39844;52.496;13.482;2022-09-30T05:13:40;100813.47;;;5.78;99.00
53932;BME280;39844;52.496;13.482;2022-09-30T05:16:06;100808.25;;;5.77;98.90
53932;BME280;39844;52.496;13.482;2022-09-30T05:18:32;100816.94;;;5.77;99.22
53932;BME280;39844;52.496;13.482;2022-09-30T05:21:01;100819.53;;;5.79;99.62
53932;BME280;39844;52.496;13.482;2022-09-30T05:23:28;100820.50;;;5.82;99.73
53932;BME280;39844;52.496;13.482;2022-09-30T05:25:55;100827.41;;;5.82;99.25
53932;BME280;39844;52.496;13.482;2022-09-30T05:28:20;100828.31;;;5.84;99.37
53932;BME280;39844;52.496;13.482;2022-09-30T05:30:45;100829.19;;;5.84;99.30
53932;BME280;39844;52.496;13.482;2022-09-30T05:33:12;100827.44;;;5.83;99.19
53932;BME280;39844;52.496;13.482;2022-09-30T05:35:39;100837.00;;;5.84;99.26
53932;BME280;39844;52.496;13.482;2022-09-30T05:38:06;100839.63;;;5.84;99.20
53932;BME280;39844;52.496;13.482;2022-09-30T05:40:31;100836.19;;;5.85;99.67
53932;BME280;39844;52.496;13.482;2022-09-30T05:42:57;100840.59;;;5.89;99.66
53932;BME280;39844;52.496;13.482;2022-09-30T05:45:23;100843.22;;;5.91;99.64
53932;BME280;39844;52.496;13.482;2022-09-30T05:47:52;100846.75;;;5.94;99.60
53932;BME280;39844;52.496;13.482;2022-09-30T05:50:18;100849.44;;;5.99;99.86
53932;BME280;39844;52.496;13.482;2022-09-30T05:52:44;100856.44;;;6.01;99.94
53932;BME280;39844;52.496;13.482;2022-09-30T05:55:10;100853.00;;;6.04;99.58
53932;BME280;39844;52.496;13.482;2022-09-30T05:57:35;100857.44;;;6.09;99.85
53932;BME280;39844;52.496;13.482;2022-09-30T06:00:00;100869.69;;;6.15;100.00
53932;BME280;39844;52.496;13.482;2022-09-30T06:02:26;100868.03;;;6.20;99.90
53932;BME280;39844;52.496;13.482;2022-09-30T06:04:51;100859.41;;;6.24;99.64
53932;BME280;39844;52.496;13.482;2022-09-30T06:07:16;100863.78;;;6.26;99.59
53932;BME280;39844;52.496;13.482;2022-09-30T06:09:42;100862.94;;;6.29;99.69
53932;BME280;39844;52.496;13.482;2022-09-30T06:12:07;100871.75;;;6.35;99.63
53932;BME280;39844;52.496;13.482;2022-09-30T06:14:33;100866.56;;;6.38;99.31
53932;BME280;39844;52.496;13.482;2022-09-30T06:16:58;100877.94;;;6.42;99.24
53932;BME280;39844;52.496;13.482;2022-09-30T06:19:26;100871.03;;;6.46;99.10
53932;BME280;39844;52.496;13.482;2022-09-30T06:21:54;100871.06;;;6.49;99.15
53932;BME280;39844;52.496;13.482;2022-09-30T06:24:19;100875.50;;;6.53;99.24
53932;BME280;39844;52.496;13.482;2022-09-30T06:26:45;100876.44;;;6.58;99.36
53932;BME280;39844;52.496;13.482;2022-09-30T06:29:10;100879.09;;;6.64;99.55
53932;BME280;39844;52.496;13.482;2022-09-30T06:31:36;100875.72;;;6.68;99.59
53932;BME280;39844;52.496;13.482;2022-09-30T06:34:01;100888.84;;;6.75;99.43
53932;BME280;39844;52.496;13.482;2022-09-30T06:36:26;100890.63;;;6.79;99.41
53932;BME280;39844;52.496;13.482;2022-09-30T06:38:53;100895.94;;;6.85;99.36
53932;BME280;39844;52.496;13.482;2022-09-30T06:41:19;100891.66;;;6.90;99.14
53932;BME280;39844;52.496;13.482;2022-09-30T06:43:45;100897.81;;;6.95;99.37
53932;BME280;39844;52.496;13.482;2022-09-30T06:46:10;100904.88;;;7.01;99.09
53932;BME280;39844;52.496;13.482;2022-09-30T06:48:37;100905.81;;;7.06;98.59
53932;BME280;39844;52.496;13.482;2022-09-30T06:51:03;100905.84;;;7.12;98.84
53932;BME280;39844;52.496;13.482;2022-09-30T06:53:28;100912.91;;;7.16;98.48
53932;BME280;39844;52.496;13.482;2022-09-30T06:55:55;100906.00;;;7.21;98.42
53932;BME280;39844;52.496;13.482;2022-09-30T06:58:20;100913.03;;;7.27;97.69
53932;BME280;39844;52.496;13.482;2022-09-30T07:00:55;100911.34;;;7.32;97.91
53932;BME280;39844;52.496;13.482;2022-09-30T07:03:24;100909.69;;;7.38;97.83
53932;BME280;39844;52.496;13.482;2022-09-30T07:05:57;100915.00;;;7.44;97.51
53932;BME280;39844;52.496;13.482;2022-09-30T07:08:23;100908.09;;;7.51;97.50
53932;BME280;39844;52.496;13.482;2022-09-30T07:10:50;100914.28;;;7.57;97.13
53932;BME280;39844;52.496;13.482;2022-09-30T07:13:15;100908.22;;;7.63;96.74
53932;BME280;39844;52.496;13.482;2022-09-30T07:15:41;100909.16;;;7.70;96.67
53932;BME280;39844;52.496;13.482;2022-09-30T07:18:06;100921.44;;;7.77;96.30
53932;BME280;39844;52.496;13.482;2022-09-30T07:20:32;100924.13;;;7.83;96.29
53932;BME280;39844;52.496;13.482;2022-09-30T07:22:57;100918.94;;;7.89;96.58
53932;BME280;39844;52.496;13.482;2022-09-30T07:25:23;100908.56;;;7.95;96.35
53932;BME280;39844;52.496;13.482;2022-09-30T07:27:49;100914.69;;;8.01;96.11
53932;BME280;39844;52.496;13.482;2022-09-30T07:30:14;100922.63;;;8.06;95.42
53932;BME280;39844;52.496;13.482;2022-09-30T07:32:40;100919.19;;;8.13;95.64
53932;BME280;39844;52.496;13.482;2022-09-30T07:35:05;100929.69;;;8.16;95.67
53932;BME280;39844;52.496;13.482;2022-09-30T07:37:31;100924.50;;;8.23;95.69
53932;BME280;39844;52.496;13.482;2022-09-30T07:40:04;100921.06;;;8.29;95.96
53932;BME280;39844;52.496;13.482;2022-09-30T07:42:30;100930.75;;;8.36;95.74
53932;BME280;39844;52.496;13.482;2022-09-30T07:44:56;100929.06;;;8.44;96.07
53932;BME280;39844;52.496;13.482;2022-09-30T07:47:21;100923.03;;;8.51;95.70
53932;BME280;39844;52.496;13.482;2022-09-30T07:49:47;100922.19;;;8.58;96.19
53932;BME280;39844;52.496;13.482;2022-09-30T07:52:12;100930.09;;;8.64;96.18
53932;BME280;39844;52.496;13.482;2022-09-30T07:54:38;100927.50;;;8.69;95.97
53932;BME280;39844;52.496;13.482;2022-09-30T07:57:04;100926.69;;;8.76;96.40
53932;BME280;39844;52.496;13.482;2022-09-30T07:59:32;100931.09;;;8.81;96.37
53932;BME280;39844;52.496;13.482;2022-09-30T08:01:57;100935.47;;;8.88;96.34
53932;BME280;39844;52.496;13.482;2022-09-30T08:04:24;100938.16;;;8.98;96.45
53932;BME280;39844;52.496;13.482;2022-09-30T08:06:53;100939.06;;;9.06;95.98
53932;BME280;39844;52.496;13.482;2022-09-30T08:09:20;100944.38;;;9.15;96.04
53932;BME280;39844;52.496;13.482;2022-09-30T08:11:47;100940.03;;;9.21;96.20
53932;BME280;39844;52.496;13.482;2022-09-30T08:14:18;100956.66;;;9.31;95.69
53932;BME280;39844;52.496;13.482;2022-09-30T08:16:43;100954.97;;;9.39;95.71
53932;BME280;39844;52.496;13.482;2022-09-30T08:19:13;100962.88;;;9.49;95.82
53932;BME280;39844;52.496;13.482;2022-09-30T08:21:40;100957.66;;;9.57;95.10
53932;BME280;39844;52.496;13.482;2022-09-30T08:24:05;100962.91;;;9.66;95.16
53932;BME280;39844;52.496;13.482;2022-09-30T08:26:31;100960.34;;;9.75;94.71
53932;BME280;39844;52.496;13.482;2022-09-30T08:28:56;100956.88;;;9.85;93.89
53932;BME280;39844;52.496;13.482;2022-09-30T08:31:22;100964.75;;;9.94;93.22
53932;BME280;39844;52.496;13.482;2022-09-30T08:33:48;100955.16;;;10.02;92.45
53932;BME280;39844;52.496;13.482;2022-09-30T08:36:21;100963.06;;;10.11;92.34
53932;BME280;39844;52.496;13.482;2022-09-30T08:38:48;100958.72;;;10.20;92.01
53932;BME280;39844;52.496;13.482;2022-09-30T08:41:27;100959.63;;;10.29;91.17
53932;BME280;39844;52.496;13.482;2022-09-30T08:46:53;100960.50;;;10.45;90.27
53932;BME280;39844;52.496;13.482;2022-09-30T08:49:33;100966.63;;;10.54;89.83
53932;BME280;39844;52.496;13.482;2022-09-30T08:52:01;100966.63;;;10.63;88.95
53932;BME280;39844;52.496;13.482;2022-09-30T08:54:32;100970.97;;;10.73;88.38
53932;BME280;39844;52.496;13.482;2022-09-30T08:57:01;100962.22;;;10.84;88.44
53932;BME280;39844;52.496;13.482;2022-09-30T08:59:36;100963.97;;;10.92;88.39
53932;BME280;39844;52.496;13.482;2022-09-30T09:02:23;100963.94;;;11.01;87.77
53932;BME280;39844;52.496;13.482;2022-09-30T09:04:52;100970.06;;;11.09;87.36
53932;BME280;39844;52.496;13.482;2022-09-30T09:10:00;100977.91;;;11.27;85.93
53932;BME280;39844;52.496;13.482;2022-09-30T09:12:52;100975.25;;;11.38;85.47
53932;BME280;39844;52.496;13.482;2022-09-30T09:18:18;100972.56;;;11.59;83.39
53932;BME280;39844;52.496;13.482;2022-09-30T09:20:56;100969.00;;;11.71;82.55
53932;BME280;39844;52.496;13.482;2022-09-30T09:23:22;100974.19;;;11.83;82.56
53932;BME280;39844;52.496;13.482;2022-09-30T09:25:49;100970.63;;;11.93;82.31
53932;BME280;39844;52.496;13.482;2022-09-30T09:30:58;100970.53;;;12.13;80.89
53932;BME280;39844;52.496;13.482;2022-09-30T09:33:29;100966.97;;;12.18;80.14
53932;BME280;39844;52.496;13.482;2022-09-30T09:36:30;100964.28;;;12.26;80.09
53932;BME280;39844;52.496;13.482;2022-09-30T09:42:05;100971.19;;;12.45;78.14
53932;BME280;39844;52.496;13.482;2022-09-30T09:45:01;100969.38;;;12.53;77.71
53932;BME280;39844;52.496;13.482;2022-09-30T09:47:27;100963.13;;;12.61;76.99
53932;BME280;39844;52.496;13.482;2022-09-30T09:50:01;100961.34;;;12.68;76.00
53932;BME280;39844;52.496;13.482;2022-09-30T09:52:50;100957.72;;;12.77;75.75
53932;BME280;39844;52.496;13.482;2022-09-30T09:55:22;100959.44;;;12.84;74.50
53932;BME280;39844;52.496;13.482;2022-09-30T09:57:51;100960.28;;;12.87;73.03
53932;BME280;39844;52.496;13.482;2022-09-30T10:00:28;100957.59;;;12.92;72.20
53932;BME280;39844;52.496;13.482;2022-09-30T10:03:17;100948.75;;;12.97;72.01
53932;BME280;39844;52.496;13.482;2022-09-30T10:08:27;100952.09;;;13.14;72.96
53932;BME280;39844;52.496;13.482;2022-09-30T10:10:58;100945.03;;;13.21;72.60
53932;BME280;39844;52.496;13.482;2022-09-30T10:13:25;100944.06;;;13.28;72.70
53932;BME280;39844;52.496;13.482;2022-09-30T10:15:53;100941.41;;;13.31;71.22
53932;BME280;39844;52.496;13.482;2022-09-30T10:18:31;100946.59;;;13.37;70.10
53932;BME280;39844;52.496;13.482;2022-09-30T10:21:00;100935.97;;;13.43;68.52
53932;BME280;39844;52.496;13.482;2022-09-30T10:23:30;100943.78;;;13.52;69.16
53932;BME280;39844;52.496;13.482;2022-09-30T10:25:58;100941.03;;;13.58;69.00
53932;BME280;39844;52.496;13.482;2022-09-30T10:28:28;100940.13;;;13.62;68.82
53932;BME280;39844;52.496;13.482;2022-09-30T10:31:12;100935.66;;;13.66;68.83
53932;BME280;39844;52.496;13.482;2022-09-30T10:33:44;100939.16;;;13.69;67.98
53932;BME280;39844;52.496;13.482;2022-09-30T10:36:18;100940.84;;;13.73;67.03
53932;BME280;39844;52.496;13.482;2022-09-30T10:38:47;100936.38;;;13.78;66.54
53932;BME280;39844;52.496;13.482;2022-09-30T10:41:22;100930.09;;;13.88;66.98
53932;BME280;39844;52.496;13.482;2022-09-30T10:43:51;100933.50;;;13.97;66.72
53932;BME280;39844;52.496;13.482;2022-09-30T10:46:26;100920.22;;;14.01;66.58
53932;BME280;39844;52.496;13.482;2022-09-30T10:48:55;100929.00;;;14.03;65.94
53932;BME280;39844;52.496;13.482;2022-09-30T10:51:29;100925.38;;;14.09;66.04
53932;BME280;39844;52.496;13.482;2022-09-30T10:53:56;100913.91;;;14.13;65.48
53932;BME280;39844;52.496;13.482;2022-09-30T10:56:34;100924.31;;;14.22;65.49
53932;BME280;39844;52.496;13.482;2022-09-30T10:59:03;100922.47;;;14.27;64.75
53932;BME280;39844;52.496;13.482;2022-09-30T11:01:34;100919.78;;;14.30;63.30
53932;BME280;39844;52.496;13.482;2022-09-30T11:04:08;100917.13;;;14.33;62.31
53932;BME280;39844;52.496;13.482;2022-09-30T11:06:39;100919.69;;;14.39;62.12
53932;BME280;39844;52.496;13.482;2022-09-30T11:12:01;100907.06;;;14.54;63.99
53932;BME280;39844;52.496;13.482;2022-09-30T11:20:02;100921.63;;;14.78;61.84
53932;BME280;39844;52.496;13.482;2022-09-30T11:22:47;100916.19;;;14.86;61.14
53932;BME280;39844;52.496;13.482;2022-09-30T11:25:23;100916.06;;;14.93;61.50
53932;BME280;39844;52.496;13.482;2022-09-30T11:36:30;100898.09;;;15.55;62.50
53932;BME280;39844;52.496;13.482;2022-09-30T11:42:11;100900.88;;;16.25;60.78
53932;BME280;39844;52.496;13.482;2022-09-30T11:44:40;100901.22;;;16.82;58.92
53932;BME280;39844;52.496;13.482;2022-09-30T11:47:23;100893.44;;;17.07;56.71
53932;BME280;39844;52.496;13.482;2022-09-30T11:50:40;100899.00;;;17.59;56.35
53932;BME280;39844;52.496;13.482;2022-09-30T11:52:55;100884.38;;;18.03;54.88
53932;BME280;39844;52.496;13.482;2022-09-30T11:55:40;100888.78;;;18.58;55.03
53932;BME280;39844;52.496;13.482;2022-09-30T11:58:10;100889.34;;;18.92;52.66
53932;BME280;39844;52.496;13.482;2022-09-30T12:00:40;100889.91;;;19.25;49.86
53932;BME280;39844;52.496;13.482;2022-09-30T12:03:34;100895.78;;;19.58;48.42
53932;BME280;39844;52.496;13.482;2022-09-30T12:06:14;100888.44;;;19.88;47.64
53932;BME280;39844;52.496;13.482;2022-09-30T12:08:54;100893.28;;;19.55;45.42
53932;BME280;39844;52.496;13.482;2022-09-30T12:11:38;100890.94;;;19.46;46.63
53932;BME280;39844;52.496;13.482;2022-09-30T12:14:19;100885.19;;;19.80;48.62
53932;BME280;39844;52.496;13.482;2022-09-30T12:16:47;100884.84;;;20.10;46.79
53932;BME280;39844;52.496;13.482;2022-09-30T12:19:24;100878.63;;;19.88;46.49
53932;BME280;39844;52.496;13.482;2022-09-30T12:24:34;100885.00;;;18.90;46.10
53932;BME280;39844;52.496;13.482;2022-09-30T12:27:00;100887.13;;;18.54;48.54
53932;BME280;39844;52.496;13.482;2022-09-30T12:29:36;100882.44;;;18.87;48.97
53932;BME280;39844;52.496;13.482;2022-09-30T12:35:16;100884.19;;;19.36;46.51
53932;BME280;39844;52.496;13.482;2022-09-30T12:37:59;100880.66;;;19.37;46.52
53932;BME280;39844;52.496;13.482;2022-09-30T12:43:59;100890.06;;;19.45;48.45
53932;BME280;39844;52.496;13.482;2022-09-30T12:49:39;100875.28;;;20.05;47.42
53932;BME280;39844;52.496;13.482;2022-09-30T12:52:10;100875.81;;;20.36;45.80
53932;BME280;39844;52.496;13.482;2022-09-30T12:54:45;100879.50;;;20.54;44.33
53932;BME280;39844;52.496;13.482;2022-09-30T12:57:19;100880.78;;;20.65;43.28
53932;BME280;39844;52.496;13.482;2022-09-30T12:59:57;100881.34;;;20.52;42.60
53932;BME280;39844;52.496;13.482;2022-09-30T13:02:34;100872.66;;;20.47;42.59
53932;BME280;39844;52.496;13.482;2022-09-30T13:13:21;100878.13;;;20.22;44.22
53932;BME280;39844;52.496;13.482;2022-09-30T13:15:49;100871.94;;;20.22;44.65
53932;BME280;39844;52.496;13.482;2022-09-30T13:23:48;100884.22;;;20.47;44.04
53932;BME280;39844;52.496;13.482;2022-09-30T13:34:28;100893.75;;;18.93;45.03
53932;BME280;39844;52.496;13.482;2022-09-30T13:37:02;100882.53;;;18.59;45.90
53932;BME280;39844;52.496;13.482;2022-09-30T13:42:20;100882.09;;;18.19;45.40
53932;BME280;39844;52.496;13.482;2022-09-30T13:45:05;100877.09;;;18.36;46.24
53932;BME280;39844;52.496;13.482;2022-09-30T13:48:01;100876.03;;;18.42;45.30
53932;BME280;39844;52.496;13.482;2022-09-30T13:50:32;100886.13;;;18.58;45.93
53932;BME280;39844;52.496;13.482;2022-09-30T13:53:04;100879.50;;;18.70;45.19
53932;BME280;39844;52.496;13.482;2022-09-30T13:55:35;100883.41;;;18.84;45.10
53932;BME280;39844;52.496;13.482;2022-09-30T14:08:00;100878.44;;;19.48;43.60
53932;BME280;39844;52.496;13.482;2022-09-30T14:10:54;100870.84;;;19.13;43.12
53932;BME280;39844;52.496;13.482;2022-09-30T14:21:36;100884.41;;;19.30;43.01
53932;BME280;39844;52.496;13.482;2022-09-30T14:24:11;100876.28;;;19.10;42.50
53932;BME280;39844;52.496;13.482;2022-09-30T14:31:50;100880.56;;;18.66;43.48
53932;BME280;39844;52.496;13.482;2022-09-30T14:34:18;100883.03;;;18.70;42.65
53932;BME280;39844;52.496;13.482;2022-09-30T14:36:46;100885.41;;;18.53;42.86
53932;BME280;39844;52.496;13.482;2022-09-30T14:39:17;100881.34;;;18.42;44.00
53932;BME280;39844;52.496;13.482;2022-09-30T14:41:53;100887.94;;;18.30;45.12
53932;BME280;39844;52.496;13.482;2022-09-30T14:44:21;100882.91;;;18.21;45.97
53932;BME280;39844;52.496;13.482;2022-09-30T14:46:48;100885.97;;;18.09;45.10
53932;BME280;39844;52.496;13.482;2022-09-30T14:49:18;100885.66;;;17.92;45.47
53932;BME280;39844;52.496;13.482;2022-09-30T14:51:47;100883.31;;;17.81;46.35
53932;BME280;39844;52.496;13.482;2022-09-30T14:56:44;100883.88;;;17.63;46.34
53932;BME280;39844;52.496;13.482;2022-09-30T14:59:21;100892.81;;;17.60;47.06
53932;BME280;39844;52.496;13.482;2022-09-30T15:01:59;100891.94;;;17.89;46.58
53932;BME280;39844;52.496;13.482;2022-09-30T15:04:33;100894.59;;;17.88;46.45
53932;BME280;39844;52.496;13.482;2022-09-30T15:07:02;100887.91;;;17.76;47.24
53932;BME280;39844;52.496;13.482;2022-09-30T15:12:05;100894.91;;;17.48;49.23
53932;BME280;39844;52.496;13.482;2022-09-30T15:14:31;100887.47;;;17.31;49.23
53932;BME280;39844;52.496;13.482;2022-09-30T15:16:57;100893.09;;;17.19;49.36
53932;BME280;39844;52.496;13.482;2022-09-30T15:19:24;100895.19;;;17.08;49.28
53932;BME280;39844;52.496;13.482;2022-09-30T15:21:51;100901.28;;;17.12;50.57
53932;BME280;39844;52.496;13.482;2022-09-30T15:24:18;100903.78;;;17.16;51.01
53932;BME280;39844;52.496;13.482;2022-09-30T15:26:45;100898.31;;;17.22;50.85
53932;BME280;39844;52.496;13.482;2022-09-30T15:29:14;100896.28;;;17.32;50.32
53932;BME280;39844;52.496;13.482;2022-09-30T15:31:45;100897.63;;;17.46;49.98
53932;BME280;39844;52.496;13.482;2022-09-30T15:34:19;100900.78;;;17.60;50.00
53932;BME280;39844;52.496;13.482;2022-09-30T15:36:47;100902.00;;;17.78;49.40
53932;BME280;39844;52.496;13.482;2022-09-30T15:39:25;100893.69;;;18.16;49.35
53932;BME280;39844;52.496;13.482;2022-09-30T15:42:32;100898.59;;;18.56;48.77